Airfield :







YOU CAN JOIN US ON...

 
LOGIN :

Register | Disclaimer

   EN    FR    IT 

 









Legend :    VFR   Marginal VFR   IFR   Intensive IFR   Very Intensive IFR
Visi :
Ceiling :
>= 8 km
>= 3000ft
5 to 8 km
1000 to 3000 ft
1500m to 5 km
500 to 1000 ft
800 to 1500m
200 to 500 ft
< 800m
< 200 ft
Symbols :   Thunderstorms  Fog  Heavy snow  Heavy precipitations  Wind > 20 kt






- Airport Elevation : 335 ft
- IATA code : BTV


KBTV - Burlington International

CURRENT METAR :
  • 250054Z 18004KT 9SM -RA FEW050 SCT080 BKN100 23/21 A3001 RMK AO2 TSE07 SLP162 P0004 T02280206

EXPIRED METARs :
  • 250007Z 15006KT 9SM -RA SCT030 SCT070 OVC110 23/21 A3001 RMK AO2 LTG DSNT NW TSE07 P0001 T02280206
  • 242354Z 15006KT 7SM -TSRA SCT029CB BKN038 BKN060 23/20 A3001 RMK AO2 RAB30 TSB43 SLP163 OCNL LTGIC SW TS SW MOV NE P0007 60007 T02330200 10300 20233 51003
  • 242254Z 14009KT 10SM FEW038 SCT110 BKN190 26/19 A3001 RMK AO2 LTG DSNT SW SLP161 T02560194
  • 242154Z 12011KT 10SM FEW032 SCT090 BKN110 27/20 A3001 RMK AO2 SLP161 MTNS E-SE OBSCD T02670200
  • 242054Z 16009KT 10SM SCT041 BKN120 BKN200 28/19 A3000 RMK AO2 LTG DSNT NE SLP159 MTNS E-SE OBSCD T02830189 56015

TAF KBTV
Valid from the 25 at 00:00 until the 26 at 00:00 UTC


242320Z 2500/2524 17008KT 6SM -SHRA VCTS BKN040CB BKN100
FM250300 18008KT 6SM BR BKN030
FM251100 20008KT P6SM BKN035
FM251500 23007KT P6SM SCT040
FM251900 28009KT P6SM SCT050
KZBW FIR / North America



MET'MAP, your aeronautical weather chart ! - Copyright ORBIFLY December 2007 - Disclaimer

ORBIFLY MET'MAP TEAM :

Programming & Development : Alexandra Zaïnal
Original concept : Baudouin d'Aumeries
Technical & hardware support : Manuel Goepfert
Assistance : Marc-Olivier Méhu




SOURCES & CREDITS :

   NOAA